Kezdőlap
METAR-TAF:

METAR-TAF

Repülőterek :

Bordj Badji Mokhtar, Algéria

földrajzi szélesség: 21-22-30N, földrajzi hosszúság: 000-55-26E, magasság: 396 m

Jelenlegi meteorológiai megfigyelések

A jelentés 2 órával és 50 perccel ezelõtt készült, 18:00 UTC
Északnyugati szél 12 kt
Hőmérséklet 40°C
Páratartalom 14%
Légköri nyomás 1010 hPa
Látótávolság: 8000 m

METAR: DATM 181800Z 32012KT 8000 NSC 40/07 Q1010

Idő: 21:50 (20:50 UTC)

Előrejelzés

A jelentés 3 órával és 50 perccel ezelõtt készült, 17:00 UTC
Az előrejelzés 18-én 18 óra UTC és 19-én 03 óra UTC között érvényes
Észak-északnyugati szél 12 kt
Látótávolság: 8000 m

TAF: DATM 181700Z 1818/1903 34012KT 8000 NSC

Meteorológiai megfigyelések és előrejelzések több, mint 4000 repülőtéren (METAR és TAF jelentéseket).

A térképen piros és sárga pontok jelzik az elérhető meteorológiai állomásokat.

Mozgassa az egeret a pont fölött, hogy megjelenjen az állomás neve.

Azután kattintson az időjárási megfigyelések és előrejelzések megtekintéséhez.

A térkép megváltoztatása: kattintson a fekete keresztel jelölt zöld gombra ráközelítéshez, a vonallal jelölt zöld gombra távolításhoz, vagy a zöld nyilakra a szomszédos térképek eléréséhez.


METAR-TAF: